createdAt,value
2022-12-18T00:01:21.826Z,-4.20
2022-12-18T00:03:49.617Z,-4.20
2022-12-18T00:06:17.363Z,-4.10
2022-12-18T00:08:45.658Z,-4.10
2022-12-18T00:11:23.616Z,-4.10
2022-12-18T00:13:51.396Z,-4.10
2022-12-18T00:16:23.216Z,-4.10
2022-12-18T00:18:51.815Z,-4.00
2022-12-18T00:21:19.870Z,-4.10
2022-12-18T00:23:47.533Z,-4.10
2022-12-18T00:26:17.691Z,-4.20
2022-12-18T00:28:45.771Z,-4.30
2022-12-18T00:31:18.399Z,-4.20
2022-12-18T00:33:45.547Z,-4.20
2022-12-18T00:36:15.404Z,-4.20
2022-12-18T00:38:42.964Z,-4.20
2022-12-18T00:41:12.685Z,-4.10
2022-12-18T00:43:41.092Z,-4.10
2022-12-18T00:46:08.115Z,-4.10
2022-12-18T00:48:34.897Z,-4.10
2022-12-18T00:51:01.639Z,-4.00
2022-12-18T00:53:28.448Z,-4.00
2022-12-18T00:55:55.180Z,-4.00
2022-12-18T00:58:22.078Z,-4.10
2022-12-18T01:00:48.848Z,-4.10
2022-12-18T01:03:15.892Z,-4.10
2022-12-18T01:05:43.222Z,-4.00
2022-12-18T01:08:10.374Z,-4.10
2022-12-18T01:10:37.314Z,-4.00
2022-12-18T01:13:04.081Z,-3.90
2022-12-18T01:15:30.869Z,-3.80
2022-12-18T01:17:57.792Z,-3.90
2022-12-18T01:20:24.584Z,-4.10
2022-12-18T01:22:51.365Z,-4.20
2022-12-18T01:25:18.170Z,-4.20
2022-12-18T01:27:45.035Z,-4.20
2022-12-18T01:30:12.214Z,-4.20
2022-12-18T01:32:39.001Z,-4.20
2022-12-18T01:35:06.448Z,-4.20
2022-12-18T01:37:33.634Z,-4.20
2022-12-18T01:40:00.341Z,-4.20
2022-12-18T01:42:27.132Z,-4.20
2022-12-18T01:45:01.843Z,-4.20
2022-12-18T01:47:43.974Z,-4.10
2022-12-18T01:50:16.718Z,-4.20
2022-12-18T01:52:49.910Z,-4.30
2022-12-18T01:55:20.024Z,-4.40
2022-12-18T01:57:47.830Z,-4.40
2022-12-18T02:00:20.058Z,-4.50
2022-12-18T02:02:48.120Z,-4.60
2022-12-18T02:05:19.788Z,-4.70
2022-12-18T02:08:09.569Z,-4.80
2022-12-18T02:10:52.926Z,-4.90
2022-12-18T02:13:54.884Z,-4.90
2022-12-18T02:16:41.305Z,-4.80
2022-12-18T02:19:29.903Z,-4.70
2022-12-18T02:22:20.707Z,-4.70
2022-12-18T02:25:28.971Z,-4.70
2022-12-18T02:27:59.128Z,-4.60
2022-12-18T02:30:27.136Z,-4.80
2022-12-18T02:32:55.284Z,-4.80
2022-12-18T02:35:26.774Z,-4.70
2022-12-18T02:37:55.293Z,-4.80
2022-12-18T02:40:24.545Z,-4.80
2022-12-18T02:42:51.409Z,-4.80
2022-12-18T02:45:18.319Z,-4.70
2022-12-18T02:47:48.933Z,-4.60
2022-12-18T02:50:21.121Z,-4.60
2022-12-18T02:52:47.793Z,-4.70
2022-12-18T02:55:24.217Z,-4.70
2022-12-18T02:58:08.895Z,-4.80
2022-12-18T03:00:35.624Z,-4.70
2022-12-18T03:03:13.255Z,-4.70
2022-12-18T03:05:48.243Z,-4.50
2022-12-18T03:08:35.000Z,-4.60
2022-12-18T03:11:13.166Z,-4.70
2022-12-18T03:13:43.162Z,-4.70
2022-12-18T03:16:15.061Z,-4.70
2022-12-18T03:18:50.696Z,-4.80
2022-12-18T03:21:22.395Z,-4.80
2022-12-18T03:23:52.273Z,-4.70
2022-12-18T03:26:23.323Z,-4.70
2022-12-18T03:28:57.901Z,-4.70
2022-12-18T03:31:27.322Z,-4.70
2022-12-18T03:33:57.049Z,-4.60
2022-12-18T03:36:24.701Z,-4.50
2022-12-18T03:38:52.159Z,-4.40
2022-12-18T03:41:33.925Z,-4.50
2022-12-18T03:44:09.664Z,-4.70
2022-12-18T03:47:05.293Z,-4.70
2022-12-18T03:49:50.972Z,-4.70
2022-12-18T03:52:43.633Z,-4.70
2022-12-18T03:55:12.062Z,-4.60
2022-12-18T03:57:39.721Z,-4.70
2022-12-18T04:00:15.408Z,-4.80
2022-12-18T04:02:48.314Z,-4.80
2022-12-18T04:05:16.635Z,-4.80
2022-12-18T04:07:44.212Z,-4.70
2022-12-18T04:10:15.763Z,-4.80
2022-12-18T04:12:42.869Z,-4.90
2022-12-18T04:15:10.364Z,-4.90
2022-12-18T04:17:37.647Z,-4.70
2022-12-18T04:20:04.912Z,-4.70
2022-12-18T04:22:31.765Z,-4.70
2022-12-18T04:24:58.583Z,-4.70
2022-12-18T04:27:25.381Z,-4.60
2022-12-18T04:29:52.187Z,-4.60
2022-12-18T04:32:19.024Z,-4.60
2022-12-18T04:34:45.914Z,-4.60
2022-12-18T04:37:12.856Z,-4.70
2022-12-18T04:39:39.650Z,-4.70
2022-12-18T04:42:06.485Z,-4.60
2022-12-18T04:44:34.291Z,-4.60
2022-12-18T04:47:01.168Z,-4.60
2022-12-18T04:49:28.015Z,-4.60
2022-12-18T04:51:54.785Z,-4.70
2022-12-18T04:54:22.079Z,-4.70
2022-12-18T04:56:48.946Z,-4.60
2022-12-18T04:59:15.788Z,-4.60
2022-12-18T05:01:42.808Z,-4.50
2022-12-18T05:04:10.064Z,-4.50
2022-12-18T05:06:36.841Z,-4.40
2022-12-18T05:09:03.818Z,-4.40
2022-12-18T05:11:30.571Z,-4.40
2022-12-18T05:13:57.337Z,-4.40
2022-12-18T05:16:24.123Z,-4.60
2022-12-18T05:18:50.957Z,-4.60
2022-12-18T05:21:17.717Z,-4.50
2022-12-18T05:23:44.603Z,-4.50
2022-12-18T05:26:16.629Z,-4.60
2022-12-18T05:28:43.432Z,-4.60
2022-12-18T05:31:10.569Z,-4.60
2022-12-18T05:33:37.824Z,-4.60
2022-12-18T05:36:07.400Z,-4.60
2022-12-18T05:38:36.732Z,-4.60
2022-12-18T05:41:04.424Z,-4.60
2022-12-18T05:43:31.376Z,-4.70
2022-12-18T05:45:58.523Z,-4.70
2022-12-18T05:48:25.341Z,-4.70
2022-12-18T05:50:52.160Z,-4.80
2022-12-18T05:53:20.653Z,-4.80
2022-12-18T05:55:48.490Z,-4.70
2022-12-18T05:58:15.831Z,-4.70
2022-12-18T06:00:46.961Z,-4.80
2022-12-18T06:03:14.692Z,-4.80
2022-12-18T06:05:46.382Z,-4.80
2022-12-18T06:08:14.519Z,-4.70
2022-12-18T06:10:42.032Z,-4.60
2022-12-18T06:13:09.390Z,-4.50
2022-12-18T06:15:39.210Z,-4.50
2022-12-18T06:18:05.979Z,-4.60
2022-12-18T06:20:33.823Z,-4.60
2022-12-18T06:23:01.057Z,-4.60
2022-12-18T06:25:27.812Z,-4.60
2022-12-18T06:27:54.821Z,-4.60
2022-12-18T06:30:21.665Z,-4.70
2022-12-18T06:32:54.609Z,-4.70
2022-12-18T06:35:23.073Z,-4.70
2022-12-18T06:37:49.865Z,-4.80
2022-12-18T06:40:17.503Z,-4.70
2022-12-18T06:42:44.286Z,-4.80
2022-12-18T06:45:12.373Z,-4.70
2022-12-18T06:47:39.148Z,-4.80
2022-12-18T06:50:06.643Z,-4.70
2022-12-18T06:52:34.602Z,-4.70
2022-12-18T06:55:01.441Z,-4.70
2022-12-18T06:57:28.220Z,-4.70
2022-12-18T06:59:54.944Z,-4.70
2022-12-18T07:02:21.855Z,-4.70
2022-12-18T07:04:48.654Z,-4.70
2022-12-18T07:07:15.410Z,-4.60
2022-12-18T07:09:42.130Z,-4.60
2022-12-18T07:12:09.162Z,-4.60
2022-12-18T07:14:36.112Z,-4.60
2022-12-18T07:17:02.968Z,-4.50
2022-12-18T07:19:30.505Z,-4.60
2022-12-18T07:21:57.863Z,-4.60
2022-12-18T07:24:24.708Z,-4.70
2022-12-18T07:26:51.498Z,-4.70
2022-12-18T07:29:18.284Z,-4.70
2022-12-18T07:31:45.262Z,-4.70
2022-12-18T07:34:16.276Z,-4.70
2022-12-18T07:36:43.141Z,-4.70
2022-12-18T07:39:11.556Z,-4.70
2022-12-18T07:41:41.298Z,-4.50
2022-12-18T07:44:12.607Z,-4.70
2022-12-18T07:46:39.846Z,-4.70
2022-12-18T07:49:06.706Z,-4.60
2022-12-18T07:51:33.609Z,-4.70
2022-12-18T07:54:00.359Z,-4.60
2022-12-18T07:56:28.990Z,-4.60
2022-12-18T07:58:57.282Z,-4.60
2022-12-18T08:01:24.358Z,-4.50
2022-12-18T08:03:52.286Z,-4.60
2022-12-18T08:06:22.551Z,-4.60
2022-12-18T08:08:55.893Z,-4.50
2022-12-18T08:11:24.200Z,-4.50
2022-12-18T08:13:51.451Z,-4.50
2022-12-18T08:16:19.212Z,-4.40
2022-12-18T08:18:47.156Z,-4.30
2022-12-18T08:21:22.274Z,-4.30
2022-12-18T08:23:49.823Z,-4.30
2022-12-18T08:26:18.770Z,-4.40
2022-12-18T08:28:46.349Z,-4.30
2022-12-18T08:31:13.165Z,-4.20
2022-12-18T08:33:41.032Z,-4.20
2022-12-18T08:36:10.414Z,-4.30
2022-12-18T08:38:37.467Z,-4.30
2022-12-18T08:41:09.748Z,-4.40
2022-12-18T08:43:55.161Z,-4.40
2022-12-18T08:46:23.486Z,-4.40
2022-12-18T08:48:52.412Z,-4.50
2022-12-18T08:51:19.844Z,-4.50
2022-12-18T08:53:47.526Z,-4.50
2022-12-18T08:56:15.409Z,-4.40
2022-12-18T08:58:42.824Z,-4.40
2022-12-18T09:01:11.339Z,-4.40
2022-12-18T09:03:38.751Z,-4.40
2022-12-18T09:06:06.536Z,-4.20
2022-12-18T09:08:37.548Z,-4.30
2022-12-18T09:11:04.555Z,-4.10
2022-12-18T09:13:31.937Z,-4.00
2022-12-18T09:15:58.722Z,-4.10
2022-12-18T09:18:26.138Z,-4.10
2022-12-18T09:20:53.904Z,-4.10
2022-12-18T09:23:21.639Z,-4.00
2022-12-18T09:25:48.686Z,-4.00
2022-12-18T09:28:17.477Z,-4.10
2022-12-18T09:30:49.829Z,-4.00
2022-12-18T09:33:17.456Z,-3.90
2022-12-18T09:35:45.957Z,-3.90
2022-12-18T09:38:15.141Z,-4.00
2022-12-18T09:40:49.127Z,-4.10
2022-12-18T09:43:39.935Z,-4.10
2022-12-18T09:46:11.374Z,-4.10
2022-12-18T09:48:43.753Z,-4.20
2022-12-18T09:51:18.222Z,-4.20
2022-12-18T09:53:51.918Z,-4.30
2022-12-18T09:56:23.662Z,-4.20
2022-12-18T09:59:01.560Z,-4.30
2022-12-18T10:01:38.978Z,-4.30
2022-12-18T10:04:10.521Z,-4.30
2022-12-18T10:06:44.868Z,-4.30
2022-12-18T10:09:50.204Z,-4.30
2022-12-18T10:12:29.739Z,-4.20
2022-12-18T10:15:19.488Z,-4.20
2022-12-18T10:17:59.061Z,-4.10
2022-12-18T10:20:33.380Z,-4.10
2022-12-18T10:23:22.135Z,-4.10
2022-12-18T10:26:13.907Z,-4.20
2022-12-18T10:28:43.203Z,-4.10
2022-12-18T10:31:24.692Z,-4.00
2022-12-18T10:33:52.488Z,-4.00
2022-12-18T10:36:19.843Z,-4.00
2022-12-18T10:38:46.691Z,-3.80
2022-12-18T10:41:21.762Z,-3.60
2022-12-18T10:43:49.082Z,-3.50
2022-12-18T10:46:20.221Z,-3.40
2022-12-18T10:48:53.102Z,-3.40
2022-12-18T10:51:24.404Z,-3.70
2022-12-18T10:54:06.210Z,-3.90
2022-12-18T10:56:36.700Z,-3.90
2022-12-18T10:59:06.835Z,-3.90
2022-12-18T11:01:55.016Z,-3.90
2022-12-18T11:04:26.209Z,-3.90
2022-12-18T11:07:05.383Z,-3.70
2022-12-18T11:09:40.657Z,-3.70
2022-12-18T11:12:19.658Z,-3.80
2022-12-18T11:14:52.428Z,-3.80
2022-12-18T11:17:40.173Z,-3.70
2022-12-18T11:20:20.774Z,-3.80
2022-12-18T11:22:58.494Z,-3.80
2022-12-18T11:25:34.488Z,-3.60
2022-12-18T11:28:04.617Z,-3.50
2022-12-18T11:30:36.740Z,-3.50
2022-12-18T11:33:11.297Z,-3.50
2022-12-18T11:35:44.221Z,-3.40
2022-12-18T11:38:19.439Z,-3.50
2022-12-18T11:40:53.245Z,-3.60
2022-12-18T11:43:38.236Z,-3.60
2022-12-18T11:46:19.662Z,-3.70
2022-12-18T11:49:08.570Z,-3.70
2022-12-18T11:51:55.130Z,-3.40
2022-12-18T11:54:22.017Z,-3.20
2022-12-18T11:57:19.889Z,-3.10
2022-12-18T12:00:08.331Z,-2.90
2022-12-18T12:02:43.967Z,-2.70
2022-12-18T12:05:30.600Z,-2.60
2022-12-18T12:08:31.708Z,-2.60
2022-12-18T12:11:10.284Z,-2.50
2022-12-18T12:14:04.573Z,-2.50
2022-12-18T12:16:45.467Z,-2.40
2022-12-18T12:19:37.322Z,-2.40
2022-12-18T12:22:28.743Z,-2.40
2022-12-18T12:25:29.824Z,-2.60
2022-12-18T12:28:19.325Z,-3.10
2022-12-18T12:30:57.771Z,-3.30
2022-12-18T12:34:03.788Z,-3.40
2022-12-18T12:36:39.520Z,-3.60
2022-12-18T12:39:13.741Z,-3.60
2022-12-18T12:42:02.103Z,-3.60
2022-12-18T12:44:34.721Z,-3.60
2022-12-18T12:47:10.473Z,-3.70
2022-12-18T12:49:40.909Z,-3.80
2022-12-18T12:52:14.988Z,-3.70
2022-12-18T12:54:42.919Z,-3.70
2022-12-18T12:57:34.470Z,-3.70
2022-12-18T13:00:14.627Z,-3.70
2022-12-18T13:02:48.827Z,-3.70
2022-12-18T13:05:28.309Z,-3.90
2022-12-18T13:08:07.052Z,-3.90
2022-12-18T13:10:40.229Z,-4.00
2022-12-18T13:13:17.356Z,-3.90
2022-12-18T13:16:06.063Z,-3.90
2022-12-18T13:18:34.044Z,-4.00
2022-12-18T13:21:03.226Z,-4.00
2022-12-18T13:23:37.444Z,-4.10
2022-12-18T13:26:07.192Z,-4.00
2022-12-18T13:28:33.885Z,-3.90
2022-12-18T13:31:02.384Z,-3.90
2022-12-18T13:33:34.828Z,-3.90
2022-12-18T13:36:20.065Z,-3.90
2022-12-18T13:38:46.820Z,-4.00
2022-12-18T13:41:16.404Z,-3.90
2022-12-18T13:43:49.172Z,-3.70
2022-12-18T13:46:23.714Z,-3.50
2022-12-18T13:49:24.036Z,-3.50
2022-12-18T13:51:53.171Z,-3.60
2022-12-18T13:54:40.004Z,-3.60
2022-12-18T13:57:33.785Z,-3.50
2022-12-18T14:00:23.615Z,-3.60
2022-12-18T14:02:51.392Z,-3.50
2022-12-18T14:05:36.633Z,-3.50
2022-12-18T14:08:16.286Z,-3.50
2022-12-18T14:10:49.991Z,-3.40
2022-12-18T14:13:31.386Z,-3.20
2022-12-18T14:16:02.501Z,-3.30
2022-12-18T14:18:39.691Z,-3.20
2022-12-18T14:21:07.786Z,-3.20
2022-12-18T14:23:40.216Z,-3.20
2022-12-18T14:26:29.933Z,-3.20
2022-12-18T14:28:58.607Z,-3.20
2022-12-18T14:31:31.270Z,-3.40
2022-12-18T14:33:58.223Z,-3.30
2022-12-18T14:36:27.502Z,-3.50
2022-12-18T14:38:59.295Z,-3.60
2022-12-18T14:41:27.177Z,-3.80
2022-12-18T14:43:55.481Z,-3.90
2022-12-18T14:46:31.114Z,-3.90
2022-12-18T14:48:58.587Z,-3.90
2022-12-18T14:51:29.045Z,-4.00
2022-12-18T14:54:01.740Z,-4.10
2022-12-18T14:56:44.129Z,-4.20
2022-12-18T14:59:24.553Z,-4.30
2022-12-18T15:02:19.802Z,-4.30
2022-12-18T15:04:47.148Z,-4.30
2022-12-18T15:07:25.087Z,-4.50
2022-12-18T15:10:14.920Z,-4.40
2022-12-18T15:12:45.929Z,-4.50
2022-12-18T15:15:34.656Z,-4.60
2022-12-18T15:18:03.964Z,-4.70
2022-12-18T15:20:41.907Z,-4.70
2022-12-18T15:23:19.578Z,-4.60
2022-12-18T15:25:47.905Z,-4.60
2022-12-18T15:28:22.580Z,-4.60
2022-12-18T15:31:09.727Z,-4.50
2022-12-18T15:33:40.722Z,-4.50
2022-12-18T15:36:13.648Z,-4.60
2022-12-18T15:38:40.838Z,-4.50
2022-12-18T15:41:14.431Z,-4.60
2022-12-18T15:43:42.961Z,-4.50
2022-12-18T15:46:12.769Z,-4.60
2022-12-18T15:48:44.820Z,-4.50
2022-12-18T15:51:21.063Z,-4.60
2022-12-18T15:53:49.451Z,-4.50
2022-12-18T15:56:36.058Z,-4.50
2022-12-18T15:59:03.817Z,-4.50
2022-12-18T16:01:32.591Z,-4.50
2022-12-18T16:03:59.548Z,-4.40
2022-12-18T16:06:26.442Z,-4.40
2022-12-18T16:08:53.269Z,-4.30
2022-12-18T16:11:39.884Z,-4.30
2022-12-18T16:14:18.912Z,-4.40
2022-12-18T16:16:51.679Z,-4.40
2022-12-18T16:19:19.147Z,-4.40
2022-12-18T16:21:47.512Z,-4.40
2022-12-18T16:24:19.234Z,-4.30
2022-12-18T16:26:46.478Z,-4.30
2022-12-18T16:29:13.324Z,-4.20
2022-12-18T16:31:40.304Z,-4.30
2022-12-18T16:34:26.050Z,-4.10
2022-12-18T16:37:05.257Z,-4.00
2022-12-18T16:39:36.172Z,-4.20
2022-12-18T16:42:13.630Z,-4.20
2022-12-18T16:44:40.409Z,-4.20
2022-12-18T16:47:07.147Z,-4.30
2022-12-18T16:49:35.975Z,-4.30
2022-12-18T16:52:03.560Z,-4.40
2022-12-18T16:54:30.560Z,-4.30
2022-12-18T16:56:57.563Z,-4.30
2022-12-18T16:59:24.550Z,-4.30
2022-12-18T17:01:51.499Z,-4.30
2022-12-18T17:04:18.541Z,-4.20
2022-12-18T17:06:51.900Z,-4.20
2022-12-18T17:09:26.032Z,-4.30
2022-12-18T17:11:54.007Z,-4.40
2022-12-18T17:14:23.151Z,-4.40
2022-12-18T17:17:07.426Z,-4.40
2022-12-18T17:19:37.068Z,-4.40
2022-12-18T17:22:04.884Z,-4.40
2022-12-18T17:24:35.100Z,-4.40
2022-12-18T17:27:03.473Z,-4.40
2022-12-18T17:29:30.849Z,-4.50
2022-12-18T17:31:58.719Z,-4.50
2022-12-18T17:34:27.990Z,-4.30
2022-12-18T17:36:55.302Z,-4.30
2022-12-18T17:39:23.417Z,-4.30
2022-12-18T17:41:50.784Z,-4.40
2022-12-18T17:44:18.459Z,-4.40
2022-12-18T17:46:46.404Z,-4.40
2022-12-18T17:49:14.625Z,-4.40
2022-12-18T17:51:44.718Z,-4.20
2022-12-18T17:54:12.059Z,-4.30
2022-12-18T17:56:39.514Z,-4.30
2022-12-18T17:59:07.199Z,-4.30
2022-12-18T18:01:37.295Z,-4.30
2022-12-18T18:04:08.127Z,-4.40
2022-12-18T18:06:35.210Z,-4.40
2022-12-18T18:09:04.887Z,-4.40
2022-12-18T18:11:51.007Z,-4.40
2022-12-18T18:14:21.548Z,-4.40
2022-12-18T18:16:50.473Z,-4.40
2022-12-18T18:19:20.250Z,-4.40
2022-12-18T18:21:49.517Z,-4.30
2022-12-18T18:24:19.675Z,-4.20
2022-12-18T18:26:47.168Z,-4.30
2022-12-18T18:29:17.233Z,-4.30
2022-12-18T18:31:44.288Z,-4.30
2022-12-18T18:34:18.777Z,-4.30
2022-12-18T18:36:46.351Z,-4.20
2022-12-18T18:39:13.999Z,-4.10
2022-12-18T18:41:41.151Z,-4.10
2022-12-18T18:44:12.094Z,-4.20
2022-12-18T18:46:39.260Z,-4.40
2022-12-18T18:49:06.897Z,-4.30
2022-12-18T18:51:35.281Z,-4.10
2022-12-18T18:54:02.928Z,-4.00
2022-12-18T18:59:17.898Z,-4.20
2022-12-18T19:01:45.205Z,-4.20
2022-12-18T19:04:12.076Z,-4.00
2022-12-18T19:06:39.707Z,-3.90
2022-12-18T19:09:07.652Z,-3.90
2022-12-18T19:11:53.292Z,-4.10
2022-12-18T19:14:20.486Z,-4.20
2022-12-18T19:16:47.422Z,-4.30
2022-12-18T19:19:14.866Z,-4.30
2022-12-18T19:21:41.819Z,-4.30
2022-12-18T19:24:10.239Z,-4.30
2022-12-18T19:26:37.825Z,-4.30
2022-12-18T19:29:11.031Z,-4.30
2022-12-18T19:31:38.641Z,-4.30
2022-12-18T19:34:07.150Z,-4.40
2022-12-18T19:36:35.912Z,-4.40
2022-12-18T19:39:10.175Z,-4.30
2022-12-18T19:41:37.359Z,-4.20
2022-12-18T19:44:07.587Z,-4.20
2022-12-18T19:46:37.130Z,-4.40
2022-12-18T19:49:09.088Z,-4.50
2022-12-18T19:51:35.984Z,-4.50
2022-12-18T19:54:03.123Z,-4.50
2022-12-18T19:56:33.074Z,-4.50
2022-12-18T19:59:00.659Z,-4.50
2022-12-18T20:01:28.498Z,-4.50
2022-12-18T20:03:55.930Z,-4.50
2022-12-18T20:06:28.702Z,-4.60
2022-12-18T20:09:00.626Z,-4.60
2022-12-18T20:11:31.458Z,-4.60
2022-12-18T20:14:03.950Z,-4.60
2022-12-18T20:16:31.099Z,-4.60
2022-12-18T20:18:58.887Z,-4.60
2022-12-18T20:21:26.313Z,-4.60
2022-12-18T20:23:54.924Z,-4.60
2022-12-18T20:26:23.177Z,-4.50
2022-12-18T20:28:50.179Z,-4.40
2022-12-18T20:31:17.157Z,-4.30
2022-12-18T20:33:46.330Z,-4.30
2022-12-18T20:36:20.081Z,-4.30
2022-12-18T20:38:49.589Z,-4.30
2022-12-18T20:41:19.388Z,-4.40
2022-12-18T20:43:46.867Z,-4.40
2022-12-18T20:46:16.069Z,-4.60
2022-12-18T20:48:43.834Z,-4.60
2022-12-18T20:51:16.295Z,-4.50
2022-12-18T20:53:43.899Z,-4.50
2022-12-18T20:56:17.767Z,-4.40
2022-12-18T20:58:49.358Z,-4.30
2022-12-18T21:01:19.592Z,-4.30
2022-12-18T21:03:47.520Z,-4.30
2022-12-18T21:06:15.944Z,-4.30
2022-12-18T21:08:43.524Z,-4.20
2022-12-18T21:11:34.589Z,-4.20
2022-12-18T21:14:02.962Z,-4.20
2022-12-18T21:16:30.006Z,-4.20
2022-12-18T21:18:56.863Z,-4.20
2022-12-18T21:21:26.504Z,-4.20
2022-12-18T21:23:54.243Z,-4.30
2022-12-18T21:26:26.627Z,-4.30
2022-12-18T21:28:55.698Z,-4.30
2022-12-18T21:31:24.498Z,-4.40
2022-12-18T21:33:52.671Z,-4.40
2022-12-18T21:36:24.097Z,-4.30
2022-12-18T21:38:53.285Z,-4.30
2022-12-18T21:41:42.323Z,-4.20
2022-12-18T21:44:16.810Z,-4.00
2022-12-18T21:46:54.845Z,-4.00
2022-12-18T21:49:24.385Z,-4.00
2022-12-18T21:51:53.538Z,-4.00
2022-12-18T21:54:20.927Z,-4.10
2022-12-18T21:56:49.126Z,-4.20
2022-12-18T21:59:18.611Z,-4.20
2022-12-18T22:01:46.200Z,-4.10
2022-12-18T22:04:14.158Z,-4.00
2022-12-18T22:06:42.862Z,-4.10
2022-12-18T22:09:11.979Z,-4.10
2022-12-18T22:11:39.293Z,-4.00
2022-12-18T22:14:06.561Z,-4.10
2022-12-18T22:16:36.773Z,-4.10
2022-12-18T22:19:05.277Z,-4.00
2022-12-18T22:21:37.948Z,-4.10
2022-12-18T22:24:12.489Z,-4.10
2022-12-18T22:26:40.602Z,-4.10
2022-12-18T22:29:28.980Z,-3.90
2022-12-18T22:31:57.222Z,-3.80
2022-12-18T22:34:24.396Z,-3.90
2022-12-18T22:36:54.133Z,-4.00
2022-12-18T22:39:23.770Z,-4.00
2022-12-18T22:41:51.425Z,-4.10
2022-12-18T22:44:19.766Z,-4.10
2022-12-18T22:46:49.696Z,-4.20
2022-12-18T22:49:25.069Z,-4.20
2022-12-18T22:51:53.079Z,-4.10
2022-12-18T22:54:20.875Z,-4.10
2022-12-18T22:56:47.922Z,-4.10
2022-12-18T22:59:20.183Z,-4.20
2022-12-18T23:01:48.007Z,-4.10
2022-12-18T23:04:16.258Z,-4.10
2022-12-18T23:06:47.252Z,-4.10
2022-12-18T23:09:17.383Z,-4.00
2022-12-18T23:11:47.902Z,-3.90
2022-12-18T23:14:15.504Z,-4.00
2022-12-18T23:16:42.402Z,-4.10
2022-12-18T23:19:13.914Z,-4.10
2022-12-18T23:24:08.820Z,-3.90
2022-12-18T23:26:35.827Z,-3.70
2022-12-18T23:29:03.591Z,-3.60
2022-12-18T23:31:33.231Z,-3.70
2022-12-18T23:34:01.059Z,-3.80
2022-12-18T23:36:29.043Z,-3.90
2022-12-18T23:39:00.578Z,-3.80
2022-12-18T23:41:30.707Z,-3.60
2022-12-18T23:43:58.190Z,-3.60
2022-12-18T23:46:30.701Z,-3.60
2022-12-18T23:49:02.643Z,-3.60
2022-12-18T23:51:32.306Z,-3.50
2022-12-18T23:54:01.592Z,-3.40
2022-12-18T23:56:29.787Z,-3.30
2022-12-18T23:58:56.727Z,-3.20
